createdAt,value
2022-09-16T00:00:13.561Z,1.40
2022-09-16T00:02:43.075Z,1.30
2022-09-16T00:05:13.708Z,1.30
2022-09-16T00:07:43.249Z,1.30
2022-09-16T00:10:13.323Z,1.20
2022-09-16T00:12:43.709Z,1.50
2022-09-16T00:15:13.508Z,1.33
2022-09-16T00:17:42.020Z,1.30
2022-09-16T00:20:12.168Z,1.40
2022-09-16T00:22:44.879Z,1.40
2022-09-16T00:25:14.205Z,1.17
2022-09-16T00:27:49.510Z,1.33
2022-09-16T00:30:21.083Z,1.40
2022-09-16T00:32:49.871Z,1.50
2022-09-16T00:35:21.859Z,1.30
2022-09-16T00:37:52.164Z,1.30
2022-09-16T00:40:23.090Z,2.13
2022-09-16T00:42:56.179Z,1.40
2022-09-16T00:45:31.461Z,1.20
2022-09-16T00:48:03.222Z,1.10
2022-09-16T00:50:38.476Z,1.27
2022-09-16T00:53:10.276Z,1.40
2022-09-16T00:55:40.498Z,1.38
2022-09-16T00:58:17.816Z,1.50
2022-09-16T01:00:49.872Z,1.50
2022-09-16T01:03:21.490Z,1.33
2022-09-16T01:05:51.155Z,1.75
2022-09-16T01:08:21.136Z,1.40
2022-09-16T01:10:52.195Z,1.48
2022-09-16T01:13:24.602Z,1.40
2022-09-16T01:16:00.117Z,1.40
2022-09-16T01:18:37.324Z,1.30
2022-09-16T01:21:24.749Z,1.10
2022-09-16T01:24:08.992Z,1.27
2022-09-16T01:27:15.547Z,1.20
2022-09-16T01:30:15.940Z,1.40
2022-09-16T01:32:58.883Z,1.40
2022-09-16T01:35:36.603Z,1.33
2022-09-16T01:38:18.957Z,1.30
2022-09-16T01:40:56.487Z,1.20
2022-09-16T01:43:39.685Z,1.50
2022-09-16T01:46:20.708Z,1.48
2022-09-16T01:49:00.780Z,1.30
2022-09-16T01:51:38.527Z,1.35
2022-09-16T01:54:13.455Z,1.30
2022-09-16T01:56:47.452Z,1.38
2022-09-16T01:59:24.065Z,1.42
2022-09-16T02:01:56.472Z,1.65
2022-09-16T02:04:32.879Z,1.70
2022-09-16T02:07:05.136Z,1.50
2022-09-16T02:09:37.439Z,1.67
2022-09-16T02:12:14.363Z,1.90
2022-09-16T02:14:47.894Z,1.67
2022-09-16T02:17:20.784Z,1.80
2022-09-16T02:19:57.854Z,1.70
2022-09-16T02:22:32.664Z,1.88
2022-09-16T02:25:03.770Z,1.90
2022-09-16T02:27:33.833Z,1.83
2022-09-16T02:30:07.353Z,1.60
2022-09-16T02:32:41.157Z,1.85
2022-09-16T02:35:16.639Z,1.92
2022-09-16T02:37:51.519Z,1.98
2022-09-16T02:40:29.299Z,2.05
2022-09-16T02:42:59.511Z,2.38
2022-09-16T02:45:37.342Z,2.78
2022-09-16T02:48:17.649Z,2.58
2022-09-16T02:50:53.288Z,2.75
2022-09-16T02:53:31.869Z,2.80
2022-09-16T02:56:06.096Z,3.13
2022-09-16T02:58:35.256Z,4.38
2022-09-16T03:01:05.625Z,4.00
2022-09-16T03:03:37.445Z,3.88
2022-09-16T03:06:17.563Z,3.63
2022-09-16T03:08:49.086Z,4.28
2022-09-16T03:11:38.080Z,4.80
2022-09-16T03:14:25.684Z,4.68
2022-09-16T03:17:04.969Z,4.70
2022-09-16T03:19:40.673Z,4.82
2022-09-16T03:22:20.209Z,5.07
2022-09-16T03:24:59.933Z,4.93
2022-09-16T03:27:33.442Z,5.25
2022-09-16T03:30:06.342Z,4.90
2022-09-16T03:32:38.869Z,5.10
2022-09-16T03:35:12.431Z,4.50
2022-09-16T03:37:46.317Z,4.18
2022-09-16T03:40:19.847Z,4.70
2022-09-16T03:42:48.238Z,4.25
2022-09-16T03:45:19.659Z,4.07
2022-09-16T03:47:52.120Z,3.72
2022-09-16T03:50:23.418Z,4.15
2022-09-16T03:52:55.293Z,4.18
2022-09-16T03:55:23.962Z,3.90
2022-09-16T03:57:54.265Z,3.78
2022-09-16T04:00:24.251Z,3.92
2022-09-16T04:02:53.512Z,3.80
2022-09-16T04:05:22.932Z,3.50
2022-09-16T04:07:52.304Z,3.75
2022-09-16T04:10:22.938Z,3.80
2022-09-16T04:12:58.733Z,3.75
2022-09-16T04:15:27.862Z,3.42
2022-09-16T04:17:57.250Z,4.20
2022-09-16T04:20:27.938Z,3.65
2022-09-16T04:22:57.546Z,4.05
2022-09-16T04:25:29.125Z,3.80
2022-09-16T04:27:57.839Z,3.63
2022-09-16T04:30:27.400Z,4.22
2022-09-16T04:32:55.312Z,4.68
2022-09-16T04:35:23.578Z,4.10
2022-09-16T04:37:58.621Z,4.10
2022-09-16T04:40:29.423Z,4.70
2022-09-16T04:43:01.568Z,4.65
2022-09-16T04:45:31.971Z,4.35
2022-09-16T04:48:00.067Z,4.78
2022-09-16T04:50:28.880Z,4.75
2022-09-16T04:52:59.694Z,4.53
2022-09-16T04:55:31.590Z,4.63
2022-09-16T04:58:01.968Z,4.78
2022-09-16T05:00:31.673Z,4.60
2022-09-16T05:03:01.075Z,4.68
2022-09-16T05:05:32.606Z,4.80
2022-09-16T05:08:01.796Z,4.40
2022-09-16T05:10:32.151Z,4.82
2022-09-16T05:13:01.959Z,4.63
2022-09-16T05:15:31.383Z,3.97
2022-09-16T05:18:01.142Z,4.15
2022-09-16T05:20:30.906Z,3.80
2022-09-16T05:23:00.184Z,4.38
2022-09-16T05:25:28.132Z,4.30
2022-09-16T05:28:01.437Z,4.18
2022-09-16T05:30:29.421Z,4.03
2022-09-16T05:32:58.805Z,4.30
2022-09-16T05:35:26.639Z,4.05
2022-09-16T05:37:55.309Z,4.00
2022-09-16T05:40:24.143Z,4.53
2022-09-16T05:42:53.331Z,4.00
2022-09-16T05:45:30.031Z,3.80
2022-09-16T05:48:00.812Z,3.72
2022-09-16T05:50:30.310Z,3.42
2022-09-16T05:53:00.077Z,3.50
2022-09-16T05:55:29.307Z,3.40
2022-09-16T05:58:00.148Z,3.53
2022-09-16T06:00:29.777Z,2.95
2022-09-16T06:02:57.926Z,3.10
2022-09-16T06:05:26.100Z,3.22
2022-09-16T06:07:57.607Z,2.88
2022-09-16T06:10:26.614Z,2.80
2022-09-16T06:12:54.415Z,3.17
2022-09-16T06:15:22.423Z,2.95
2022-09-16T06:17:54.162Z,2.70
2022-09-16T06:20:24.322Z,2.70
2022-09-16T06:22:54.944Z,2.50
2022-09-16T06:25:24.662Z,2.40
2022-09-16T06:27:53.511Z,2.60
2022-09-16T06:30:21.812Z,2.20
2022-09-16T06:32:51.556Z,2.38
2022-09-16T06:35:21.056Z,2.35
2022-09-16T06:37:51.473Z,2.50
2022-09-16T06:40:19.608Z,2.30
2022-09-16T06:42:48.525Z,2.15
2022-09-16T06:45:18.221Z,1.88
2022-09-16T06:47:47.222Z,1.85
2022-09-16T06:50:18.494Z,1.92
2022-09-16T06:52:51.603Z,1.95
2022-09-16T06:55:21.006Z,1.60
2022-09-16T06:57:49.973Z,1.83
2022-09-16T07:00:24.927Z,2.00
2022-09-16T07:02:54.376Z,1.75
2022-09-16T07:05:23.306Z,1.85
2022-09-16T07:07:56.800Z,1.63
2022-09-16T07:10:25.551Z,1.60
2022-09-16T07:12:55.082Z,1.70
2022-09-16T07:15:24.559Z,1.50
2022-09-16T07:17:55.318Z,1.50
2022-09-16T07:20:25.088Z,1.60
2022-09-16T07:22:57.089Z,1.38
2022-09-16T07:25:27.025Z,1.55
2022-09-16T07:27:55.538Z,1.50
2022-09-16T07:30:23.691Z,1.50
2022-09-16T07:32:53.449Z,1.23
2022-09-16T07:35:22.863Z,1.42
2022-09-16T07:37:50.815Z,1.40
2022-09-16T07:40:22.076Z,1.67
2022-09-16T07:42:51.673Z,1.33
2022-09-16T07:45:19.534Z,1.50
2022-09-16T07:47:50.338Z,1.55
2022-09-16T07:50:18.637Z,1.35
2022-09-16T07:52:46.583Z,1.50
2022-09-16T07:55:17.063Z,1.20
2022-09-16T07:57:46.650Z,1.67
2022-09-16T08:00:16.284Z,1.42
2022-09-16T08:02:45.820Z,1.52
2022-09-16T08:05:16.255Z,1.80
2022-09-16T08:07:44.092Z,1.58
2022-09-16T08:10:12.092Z,1.38
2022-09-16T08:12:40.040Z,1.52
2022-09-16T08:15:11.297Z,1.42
2022-09-16T08:17:39.363Z,1.38
2022-09-16T08:20:08.186Z,1.83
2022-09-16T08:22:36.353Z,1.40
2022-09-16T08:25:04.622Z,1.50
2022-09-16T08:27:36.121Z,1.40
2022-09-16T08:30:05.714Z,1.33
2022-09-16T08:32:34.946Z,1.50
2022-09-16T08:35:04.305Z,1.20
2022-09-16T08:37:32.212Z,1.30
2022-09-16T08:40:00.350Z,1.40
2022-09-16T08:42:39.563Z,1.50
2022-09-16T08:45:20.545Z,1.50
2022-09-16T08:48:08.154Z,1.33
2022-09-16T08:50:41.211Z,1.75
2022-09-16T08:53:17.314Z,1.20
2022-09-16T08:55:48.912Z,1.70
2022-09-16T08:58:22.577Z,1.30
2022-09-16T09:00:56.035Z,1.58
2022-09-16T09:03:37.857Z,1.60
2022-09-16T09:06:15.787Z,1.27
2022-09-16T09:08:55.100Z,1.20
2022-09-16T09:11:30.355Z,1.30
2022-09-16T09:14:16.456Z,1.40
2022-09-16T09:16:53.929Z,1.23
2022-09-16T09:19:39.191Z,1.20
2022-09-16T09:22:21.392Z,1.20
2022-09-16T09:25:21.980Z,1.30
2022-09-16T09:27:58.481Z,1.42
2022-09-16T09:30:29.235Z,1.42
2022-09-16T09:33:41.312Z,1.25
2022-09-16T09:36:39.335Z,1.23
2022-09-16T09:39:30.422Z,1.20
2022-09-16T09:42:07.578Z,1.50
2022-09-16T09:44:49.382Z,1.40
2022-09-16T09:47:23.541Z,1.40
2022-09-16T09:49:55.119Z,1.27
2022-09-16T09:52:29.953Z,1.40
2022-09-16T09:55:07.446Z,1.48
2022-09-16T09:57:42.520Z,1.67
2022-09-16T10:00:29.910Z,1.48
2022-09-16T10:03:05.939Z,1.30
2022-09-16T10:05:34.044Z,1.33
2022-09-16T10:08:10.846Z,1.30
2022-09-16T10:10:51.143Z,1.00
2022-09-16T10:13:19.986Z,1.10
2022-09-16T10:15:53.235Z,1.27
2022-09-16T10:18:26.968Z,1.05
2022-09-16T10:21:03.262Z,1.02
2022-09-16T10:23:33.269Z,1.20
2022-09-16T10:26:19.522Z,0.85
2022-09-16T10:28:58.880Z,1.17
2022-09-16T10:31:33.574Z,0.93
2022-09-16T10:34:04.307Z,0.90
2022-09-16T10:36:37.811Z,0.90
2022-09-16T10:39:07.296Z,0.80
2022-09-16T10:41:42.131Z,1.00
2022-09-16T10:44:17.633Z,0.80
2022-09-16T10:46:53.022Z,0.80
2022-09-16T10:49:27.168Z,0.90
2022-09-16T10:51:55.128Z,0.82
2022-09-16T10:54:29.563Z,0.80
2022-09-16T10:56:57.420Z,1.00
2022-09-16T10:59:27.741Z,1.35
2022-09-16T11:02:14.977Z,1.00
2022-09-16T11:05:05.077Z,0.80
2022-09-16T11:07:43.288Z,0.80
2022-09-16T11:10:23.414Z,0.70
2022-09-16T11:13:28.452Z,0.70
2022-09-16T11:16:10.907Z,0.70
2022-09-16T11:18:52.930Z,0.82
2022-09-16T11:21:37.314Z,0.73
2022-09-16T11:24:21.235Z,0.80
2022-09-16T11:26:59.686Z,0.80
2022-09-16T11:30:02.205Z,0.80
2022-09-16T11:32:42.226Z,1.10
2022-09-16T11:35:35.127Z,0.90
2022-09-16T11:38:13.737Z,1.00
2022-09-16T11:40:48.589Z,0.70
2022-09-16T11:43:38.254Z,1.20
2022-09-16T11:46:16.221Z,0.80
2022-09-16T11:48:59.644Z,0.80
2022-09-16T11:51:40.446Z,1.00
2022-09-16T11:56:57.646Z,1.00
2022-09-16T11:59:42.925Z,0.80
2022-09-16T12:02:18.951Z,0.90
2022-09-16T12:04:52.174Z,1.17
2022-09-16T12:07:27.584Z,1.40
2022-09-16T12:10:01.094Z,1.20
2022-09-16T12:12:40.856Z,1.15
2022-09-16T12:15:22.477Z,1.10
2022-09-16T12:17:57.206Z,1.05
2022-09-16T12:20:30.970Z,1.00
2022-09-16T12:23:06.766Z,0.95
2022-09-16T12:25:45.485Z,1.10
2022-09-16T12:28:21.622Z,1.30
2022-09-16T12:31:02.500Z,1.20
2022-09-16T12:33:36.987Z,1.48
2022-09-16T12:36:08.306Z,1.00
2022-09-16T12:38:37.024Z,1.30
2022-09-16T12:41:27.985Z,0.90
2022-09-16T12:44:35.899Z,0.90
2022-09-16T12:47:23.919Z,0.90
2022-09-16T12:50:21.540Z,0.90
2022-09-16T12:53:12.962Z,0.80
2022-09-16T12:56:06.762Z,0.70
2022-09-16T12:59:00.142Z,0.80
2022-09-16T13:01:33.940Z,0.68
2022-09-16T13:04:11.973Z,0.70
2022-09-16T13:06:58.434Z,0.65
2022-09-16T13:09:34.829Z,0.82
2022-09-16T13:15:05.332Z,0.70
2022-09-16T13:17:39.642Z,0.73
2022-09-16T13:20:17.007Z,0.60
2022-09-16T13:22:47.578Z,0.70
2022-09-16T13:25:24.591Z,0.90
2022-09-16T13:28:01.762Z,0.75
2022-09-16T13:30:36.206Z,0.80
2022-09-16T13:33:30.905Z,0.82
2022-09-16T13:36:31.272Z,0.90
2022-09-16T13:39:01.916Z,0.90
2022-09-16T13:41:33.777Z,0.90
2022-09-16T13:44:02.702Z,0.80
2022-09-16T13:46:36.005Z,0.60
2022-09-16T13:49:17.993Z,0.80
2022-09-16T13:51:49.287Z,0.80
2022-09-16T13:54:43.196Z,0.90
2022-09-16T13:57:31.080Z,1.10
2022-09-16T14:00:17.255Z,0.98
2022-09-16T14:03:08.834Z,1.10
2022-09-16T14:05:48.146Z,1.10
2022-09-16T14:08:28.122Z,1.10
2022-09-16T14:11:02.980Z,1.15
2022-09-16T14:13:39.643Z,0.90
2022-09-16T14:16:18.877Z,0.80
2022-09-16T14:18:55.816Z,0.90
2022-09-16T14:21:25.422Z,0.95
2022-09-16T14:26:27.660Z,0.80
2022-09-16T14:29:03.566Z,0.90
2022-09-16T14:31:33.971Z,0.77
2022-09-16T14:34:04.541Z,0.80
2022-09-16T14:36:35.193Z,0.80
2022-09-16T14:39:12.817Z,0.98
2022-09-16T14:41:44.879Z,1.00
2022-09-16T14:44:21.204Z,1.08
2022-09-16T14:46:51.505Z,0.90
2022-09-16T14:49:20.543Z,1.20
2022-09-16T14:51:52.305Z,1.20
2022-09-16T14:54:23.260Z,1.20
2022-09-16T14:56:59.260Z,1.10
2022-09-16T14:59:31.477Z,1.05
2022-09-16T15:02:05.044Z,1.00
2022-09-16T15:04:36.178Z,1.55
2022-09-16T15:07:12.455Z,1.10
2022-09-16T15:09:47.072Z,1.25
2022-09-16T15:12:21.380Z,1.25
2022-09-16T15:14:49.587Z,1.23
2022-09-16T15:17:20.622Z,1.30
2022-09-16T15:19:53.720Z,1.25
2022-09-16T15:22:22.231Z,1.20
2022-09-16T15:24:54.786Z,1.20
2022-09-16T15:27:24.583Z,1.20
2022-09-16T15:29:59.523Z,1.13
2022-09-16T15:32:31.630Z,1.35
2022-09-16T15:35:22.829Z,1.00
2022-09-16T15:37:51.113Z,1.30
2022-09-16T15:40:25.012Z,1.30
2022-09-16T15:43:05.811Z,1.02
2022-09-16T15:45:34.306Z,1.20
2022-09-16T15:48:06.472Z,1.38
2022-09-16T15:50:42.082Z,1.13
2022-09-16T15:53:13.962Z,1.10
2022-09-16T15:55:53.248Z,1.00
2022-09-16T15:58:33.108Z,1.10
2022-09-16T16:01:04.517Z,1.42
2022-09-16T16:03:37.533Z,1.30
2022-09-16T16:06:05.972Z,1.30
2022-09-16T16:08:47.219Z,1.30
2022-09-16T16:11:18.399Z,1.40
2022-09-16T16:13:46.801Z,1.45
2022-09-16T16:16:16.983Z,1.70
2022-09-16T16:18:46.936Z,1.67
2022-09-16T16:21:16.676Z,1.48
2022-09-16T16:23:44.941Z,1.58
2022-09-16T16:26:13.043Z,1.40
2022-09-16T16:28:42.893Z,1.27
2022-09-16T16:31:16.202Z,1.40
2022-09-16T16:33:46.620Z,1.40
2022-09-16T16:36:15.860Z,1.55
2022-09-16T16:38:43.932Z,1.45
2022-09-16T16:41:12.579Z,1.20
2022-09-16T16:43:41.891Z,1.20
2022-09-16T16:46:09.858Z,1.30
2022-09-16T16:48:39.576Z,1.15
2022-09-16T16:51:09.984Z,1.27
2022-09-16T16:53:38.312Z,1.40
2022-09-16T16:56:11.357Z,1.60
2022-09-16T16:58:46.118Z,1.35
2022-09-16T17:01:16.500Z,1.35
2022-09-16T17:03:46.386Z,1.25
2022-09-16T17:06:14.883Z,1.58
2022-09-16T17:08:42.914Z,1.30
2022-09-16T17:11:12.679Z,1.50
2022-09-16T17:13:43.749Z,1.30
2022-09-16T17:16:15.146Z,1.30
2022-09-16T17:18:44.260Z,1.70
2022-09-16T17:21:15.941Z,1.75
2022-09-16T17:23:44.489Z,1.83
2022-09-16T17:26:13.170Z,2.10
2022-09-16T17:28:42.320Z,2.15
2022-09-16T17:31:12.961Z,1.80
2022-09-16T17:33:40.855Z,1.70
2022-09-16T17:36:10.360Z,1.85
2022-09-16T17:38:38.388Z,2.70
2022-09-16T17:41:09.621Z,2.00
2022-09-16T17:43:38.731Z,1.50
2022-09-16T17:46:09.398Z,1.70
2022-09-16T17:48:38.875Z,1.48
2022-09-16T17:51:07.262Z,1.65
2022-09-16T17:53:36.101Z,1.55
2022-09-16T17:56:05.813Z,1.55
2022-09-16T17:58:34.214Z,1.80
2022-09-16T18:01:07.616Z,1.92
2022-09-16T18:03:36.000Z,1.83
2022-09-16T18:06:07.507Z,1.90
2022-09-16T18:08:36.080Z,1.70
2022-09-16T18:11:05.502Z,1.52
2022-09-16T18:13:34.179Z,1.67
2022-09-16T18:16:07.084Z,1.90
2022-09-16T18:18:37.129Z,1.90
2022-09-16T18:21:07.683Z,1.75
2022-09-16T18:23:36.104Z,1.60
2022-09-16T18:26:06.681Z,1.80
2022-09-16T18:28:58.280Z,1.92
2022-09-16T18:31:25.271Z,1.90
2022-09-16T18:33:54.297Z,1.90
2022-09-16T18:36:25.558Z,2.60
2022-09-16T18:38:55.072Z,2.28
2022-09-16T18:41:24.849Z,1.73
2022-09-16T18:43:55.723Z,1.80
2022-09-16T18:46:26.650Z,1.75
2022-09-16T18:48:55.835Z,1.83
2022-09-16T18:51:26.698Z,1.50
2022-09-16T18:53:57.859Z,1.50
2022-09-16T18:56:27.062Z,1.45
2022-09-16T18:59:19.959Z,1.50
2022-09-16T19:01:48.636Z,1.80
2022-09-16T19:04:18.792Z,1.60
2022-09-16T19:06:50.472Z,1.30
2022-09-16T19:09:22.705Z,1.90
2022-09-16T19:11:54.589Z,1.88
2022-09-16T19:14:24.980Z,1.70
2022-09-16T19:16:53.870Z,1.50
2022-09-16T19:19:22.930Z,1.50
2022-09-16T19:21:53.102Z,1.67
2022-09-16T19:24:23.014Z,1.80
2022-09-16T19:26:53.955Z,1.80
2022-09-16T19:29:22.362Z,1.85
2022-09-16T19:31:52.751Z,2.00
2022-09-16T19:34:21.342Z,1.52
2022-09-16T19:36:49.300Z,1.83
2022-09-16T19:39:19.211Z,1.92
2022-09-16T19:41:47.079Z,2.00
2022-09-16T19:44:17.121Z,2.30
2022-09-16T19:46:47.076Z,2.10
2022-09-16T19:49:19.488Z,1.90
2022-09-16T19:51:48.310Z,1.83
2022-09-16T19:54:18.391Z,1.50
2022-09-16T19:56:50.317Z,1.65
2022-09-16T19:59:19.443Z,1.55
2022-09-16T20:01:48.114Z,1.40
2022-09-16T20:04:19.519Z,1.50
2022-09-16T20:06:48.060Z,1.55
2022-09-16T20:09:16.871Z,1.70
2022-09-16T20:11:47.691Z,1.83
2022-09-16T20:14:18.981Z,1.50
2022-09-16T20:16:47.101Z,1.30
2022-09-16T20:19:17.042Z,1.60
2022-09-16T20:21:45.389Z,1.42
2022-09-16T20:24:18.040Z,1.40
2022-09-16T20:26:48.244Z,1.52
2022-09-16T20:29:17.326Z,1.60
2022-09-16T20:31:46.056Z,1.10
2022-09-16T20:34:16.618Z,1.52
2022-09-16T20:36:45.890Z,1.70
2022-09-16T20:39:14.371Z,1.25
2022-09-16T20:41:43.539Z,1.52
2022-09-16T20:44:14.815Z,1.60
2022-09-16T20:46:42.694Z,1.50
2022-09-16T20:49:16.048Z,1.52
2022-09-16T20:51:44.501Z,1.50
2022-09-16T20:54:14.153Z,1.38
2022-09-16T20:56:44.799Z,1.48
2022-09-16T20:59:16.197Z,1.23
2022-09-16T21:01:44.667Z,1.20
2022-09-16T21:04:14.671Z,1.30
2022-09-16T21:06:42.940Z,1.10
2022-09-16T21:09:12.817Z,1.27
2022-09-16T21:11:44.465Z,1.40
2022-09-16T21:14:16.391Z,1.65
2022-09-16T21:16:45.818Z,1.25
2022-09-16T21:19:15.062Z,1.50
2022-09-16T21:21:45.919Z,1.30
2022-09-16T21:24:14.216Z,1.13
2022-09-16T21:26:44.111Z,1.33
2022-09-16T21:29:15.899Z,1.40
2022-09-16T21:31:44.374Z,1.38
2022-09-16T21:34:14.036Z,1.30
2022-09-16T21:36:44.608Z,1.40
2022-09-16T21:39:13.384Z,1.30
2022-09-16T21:41:41.659Z,1.50
2022-09-16T21:44:09.897Z,1.45
2022-09-16T21:46:43.083Z,1.20
2022-09-16T21:49:21.070Z,1.27
2022-09-16T21:51:49.564Z,1.30
2022-09-16T21:54:20.186Z,1.10
2022-09-16T21:56:49.233Z,1.30
2022-09-16T21:59:19.481Z,1.42
2022-09-16T22:01:49.924Z,1.40
2022-09-16T22:04:20.147Z,1.15
2022-09-16T22:06:49.764Z,1.30
2022-09-16T22:09:17.772Z,1.10
2022-09-16T22:11:45.659Z,1.10
2022-09-16T22:14:13.642Z,1.38
2022-09-16T22:16:41.968Z,1.30
2022-09-16T22:19:13.020Z,1.00
2022-09-16T22:21:42.499Z,1.40
2022-09-16T22:24:11.538Z,1.25
2022-09-16T22:26:39.888Z,1.40
2022-09-16T22:29:09.613Z,1.40
2022-09-16T22:31:39.586Z,1.10
2022-09-16T22:34:08.115Z,1.10
2022-09-16T22:36:38.441Z,1.13
2022-09-16T22:39:11.214Z,1.00
2022-09-16T22:41:39.066Z,1.50
2022-09-16T22:44:07.278Z,1.20
2022-09-16T22:46:42.939Z,1.27
2022-09-16T22:49:11.752Z,1.10
2022-09-16T22:51:41.561Z,1.30
2022-09-16T22:54:09.974Z,1.25
2022-09-16T22:56:37.888Z,1.30
2022-09-16T22:59:08.259Z,1.20
2022-09-16T23:01:38.827Z,1.10
2022-09-16T23:04:08.837Z,1.27
2022-09-16T23:06:38.962Z,1.42
2022-09-16T23:09:09.725Z,1.27
2022-09-16T23:11:37.724Z,1.60
2022-09-16T23:14:06.472Z,1.33
2022-09-16T23:16:36.324Z,1.27
2022-09-16T23:19:06.939Z,1.23
2022-09-16T23:21:35.618Z,1.20
2022-09-16T23:24:05.388Z,1.30
2022-09-16T23:26:38.939Z,1.40
2022-09-16T23:29:08.636Z,1.38
2022-09-16T23:31:40.476Z,1.40
2022-09-16T23:34:09.200Z,1.13
2022-09-16T23:36:37.991Z,1.45
2022-09-16T23:39:07.126Z,1.17
2022-09-16T23:41:38.468Z,1.30
2022-09-16T23:44:07.143Z,1.27
2022-09-16T23:46:35.285Z,1.10
2022-09-16T23:49:03.590Z,1.20
2022-09-16T23:51:33.062Z,1.35
2022-09-16T23:54:01.992Z,1.30
2022-09-16T23:56:30.125Z,1.20
2022-09-16T23:59:01.709Z,1.10
